LIMZ METAR and TAF | Updated Today

LIMZ METAR

Cuneo International Airport

Observation time: 17 min. ago

LIMZ 291120Z AUTO 33004KT 290V030 9999 OVC009/// 14/12 Q1008

Need help? Read our tutorial on how to read METARs or read the parsed version below.

Cuneo International Airport (LIMZ) METAR

  • Weather conditions on Sun, 29 May 2022 11:20:00 +0000 (17 min. ago):
  • Present conditions: Dry
  • Clouds: Overcast sky at 274 meters
  • Visibility: Greater than 10 km
  • Wind: 330 degrees at 4 knots
  • Temperature: 14 celsius
  • Dew point: 12 celsius
  • Pressure: 1008 millibars
  • Remarks: None


Useful to know...

LIMZ TAF

Cuneo International Airport

TAF LIMZ 290500Z 2906/3006 VRB05KT 8000 BKN010
Observation time: 6:37 hr. ago
Need help? Read our tutorial on how to read TAFs or read the parsed version below.

Parsed version of TAF for Cuneo International Airport (LIMZ)

  • From 29 May at 06:00 UTC, to day 30 of the month at 06:00 UTC
  • Clouds: Broken sky at 305 meters
  • Visibility: 8000 meters
  • Wind: Variable at 5